sensor_id;sensor_type;location;lat;lon;timestamp;pressure;altitude;pressure_sealevel;temperature;humidity
54042;BME280;41156;51.508;5.406;2023-02-02T00:01:19;102055.91;;;7.47;100.00
54042;BME280;41156;51.508;5.406;2023-02-02T00:04:23;102052.22;;;7.48;100.00
54042;BME280;41156;51.508;5.406;2023-02-02T00:07:24;102046.16;;;7.46;100.00
54042;BME280;41156;51.508;5.406;2023-02-02T00:10:24;102038.06;;;7.46;100.00
54042;BME280;41156;51.508;5.406;2023-02-02T00:13:24;102047.00;;;7.46;100.00
54042;BME280;41156;51.508;5.406;2023-02-02T00:19:27;102036.41;;;7.45;100.00
54042;BME280;41156;51.508;5.406;2023-02-02T00:22:29;102044.47;;;7.45;100.00
54042;BME280;41156;51.508;5.406;2023-02-02T00:25:29;102036.41;;;7.45;100.00
54042;BME280;41156;51.508;5.406;2023-02-02T00:28:29;102040.59;;;7.47;100.00
54042;BME280;41156;51.508;5.406;2023-02-02T00:31:30;102041.44;;;7.56;100.00
54042;BME280;41156;51.508;5.406;2023-02-02T00:34:30;102056.59;;;7.57;100.00
54042;BME280;41156;51.508;5.406;2023-02-02T00:37:30;102042.97;;;7.58;100.00
54042;BME280;41156;51.508;5.406;2023-02-02T00:40:30;102052.91;;;7.58;100.00
54042;BME280;41156;51.508;5.406;2023-02-02T00:43:31;102058.13;;;7.59;100.00
54042;BME280;41156;51.508;5.406;2023-02-02T00:46:31;102067.38;;;7.65;100.00
54042;BME280;41156;51.508;5.406;2023-02-02T00:49:31;102071.75;;;7.66;100.00
54042;BME280;41156;51.508;5.406;2023-02-02T00:52:32;102060.13;;;7.66;100.00
54042;BME280;41156;51.508;5.406;2023-02-02T00:55:32;102062.00;;;7.65;100.00
54042;BME280;41156;51.508;5.406;2023-02-02T00:58:32;102063.84;;;7.65;100.00
54042;BME280;41156;51.508;5.406;2023-02-02T01:01:33;102053.75;;;7.67;100.00
54042;BME280;41156;51.508;5.406;2023-02-02T01:04:33;102068.03;;;7.67;100.00
54042;BME280;41156;51.508;5.406;2023-02-02T01:07:33;102067.03;;;7.68;100.00
54042;BME280;41156;51.508;5.406;2023-02-02T01:10:34;102058.97;;;7.68;100.00
54042;BME280;41156;51.508;5.406;2023-02-02T01:13:35;102058.16;;;7.68;100.00
54042;BME280;41156;51.508;5.406;2023-02-02T01:16:35;102061.66;;;7.68;100.00
54042;BME280;41156;51.508;5.406;2023-02-02T01:19:35;102059.97;;;7.67;100.00
54042;BME280;41156;51.508;5.406;2023-02-02T01:22:36;102058.16;;;7.68;100.00
54042;BME280;41156;51.508;5.406;2023-02-02T01:25:37;102049.22;;;7.67;100.00
54042;BME280;41156;51.508;5.406;2023-02-02T01:28:38;102050.06;;;7.68;100.00
54042;BME280;41156;51.508;5.406;2023-02-02T01:31:38;102057.94;;;7.69;100.00
54042;BME280;41156;51.508;5.406;2023-02-02T01:34:39;102054.44;;;7.69;100.00
54042;BME280;41156;51.508;5.406;2023-02-02T01:37:40;102059.81;;;7.69;100.00
54042;BME280;41156;51.508;5.406;2023-02-02T01:40:49;102062.50;;;7.69;100.00
54042;BME280;41156;51.508;5.406;2023-02-02T01:44:03;102068.03;;;7.67;100.00
54042;BME280;41156;51.508;5.406;2023-02-02T01:47:04;102066.38;;;7.66;100.00
54042;BME280;41156;51.508;5.406;2023-02-02T01:50:05;102063.00;;;7.64;100.00
54042;BME280;41156;51.508;5.406;2023-02-02T01:53:08;102061.31;;;7.63;100.00
54042;BME280;41156;51.508;5.406;2023-02-02T01:56:11;102063.16;;;7.63;100.00
54042;BME280;41156;51.508;5.406;2023-02-02T01:59:14;102061.31;;;7.63;100.00
54042;BME280;41156;51.508;5.406;2023-02-02T02:02:16;102056.63;;;7.65;100.00
54042;BME280;41156;51.508;5.406;2023-02-02T02:05:22;102054.59;;;7.67;100.00
54042;BME280;41156;51.508;5.406;2023-02-02T02:08:25;102059.97;;;7.67;100.00
54042;BME280;41156;51.508;5.406;2023-02-02T02:11:26;102066.53;;;7.65;100.00
54042;BME280;41156;51.508;5.406;2023-02-02T02:14:27;102065.69;;;7.64;100.00
54042;BME280;41156;51.508;5.406;2023-02-02T02:38:30;102073.72;;;7.56;100.00
54042;BME280;41156;51.508;5.406;2023-02-02T02:41:38;102068.34;;;7.56;100.00
54042;BME280;41156;51.508;5.406;2023-02-02T02:44:41;102072.22;;;7.53;100.00
54042;BME280;41156;51.508;5.406;2023-02-02T02:47:42;102067.00;;;7.52;100.00
54042;BME280;41156;51.508;5.406;2023-02-02T02:50:43;102066.19;;;7.51;100.00
54042;BME280;41156;51.508;5.406;2023-02-02T02:53:44;102077.09;;;7.50;100.00
54042;BME280;41156;51.508;5.406;2023-02-02T02:59:55;102081.63;;;7.49;100.00
54042;BME280;41156;51.508;5.406;2023-02-02T03:09:12;102064.97;;;7.46;100.00
54042;BME280;41156;51.508;5.406;2023-02-02T03:12:15;102074.06;;;7.45;100.00
54042;BME280;41156;51.508;5.406;2023-02-02T03:15:17;102065.13;;;7.44;100.00
54042;BME280;41156;51.508;5.406;2023-02-02T03:18:19;102065.28;;;7.43;100.00
54042;BME280;41156;51.508;5.406;2023-02-02T03:21:21;102069.00;;;7.41;100.00
54042;BME280;41156;51.508;5.406;2023-02-02T03:24:21;102063.63;;;7.41;100.00
54042;BME280;41156;51.508;5.406;2023-02-02T03:27:22;102067.16;;;7.42;100.00
54042;BME280;41156;51.508;5.406;2023-02-02T03:30:22;102058.25;;;7.41;100.00
54042;BME280;41156;51.508;5.406;2023-02-02T03:33:22;102067.97;;;7.43;100.00
54042;BME280;41156;51.508;5.406;2023-02-02T03:36:23;102047.50;;;7.41;100.00
54042;BME280;41156;51.508;5.406;2023-02-02T03:39:23;102052.19;;;7.39;100.00
54042;BME280;41156;51.508;5.406;2023-02-02T03:42:23;102058.56;;;7.38;100.00
54042;BME280;41156;51.508;5.406;2023-02-02T03:45:26;102058.56;;;7.38;100.00
54042;BME280;41156;51.508;5.406;2023-02-02T03:48:27;102063.94;;;7.38;100.00
54042;BME280;41156;51.508;5.406;2023-02-02T03:51:27;102071.88;;;7.40;100.00
54042;BME280;41156;51.508;5.406;2023-02-02T03:54:28;102084.28;;;7.41;100.00
54042;BME280;41156;51.508;5.406;2023-02-02T03:57:28;102079.25;;;7.38;100.00
54042;BME280;41156;51.508;5.406;2023-02-02T04:00:28;102092.19;;;7.43;100.00
54042;BME280;41156;51.508;5.406;2023-02-02T04:03:29;102087.66;;;7.43;100.00
54042;BME280;41156;51.508;5.406;2023-02-02T04:06:29;102091.88;;;7.46;100.00
54042;BME280;41156;51.508;5.406;2023-02-02T04:09:30;102084.66;;;7.46;100.00
54042;BME280;41156;51.508;5.406;2023-02-02T04:12:30;102084.81;;;7.45;100.00
54042;BME280;41156;51.508;5.406;2023-02-02T04:15:30;102080.44;;;7.44;100.00
54042;BME280;41156;51.508;5.406;2023-02-02T04:18:30;102084.81;;;7.45;100.00
54042;BME280;41156;51.508;5.406;2023-02-02T04:21:32;102079.44;;;7.45;100.00
54042;BME280;41156;51.508;5.406;2023-02-02T04:24:32;102087.50;;;7.45;100.00
54042;BME280;41156;51.508;5.406;2023-02-02T04:27:32;102098.09;;;7.46;100.00
54042;BME280;41156;51.508;5.406;2023-02-02T04:30:33;102092.72;;;7.46;100.00
54042;BME280;41156;51.508;5.406;2023-02-02T04:33:33;102093.72;;;7.45;100.00
54042;BME280;41156;51.508;5.406;2023-02-02T04:36:34;102102.78;;;7.44;100.00
54042;BME280;41156;51.508;5.406;2023-02-02T04:39:34;102098.28;;;7.45;100.00
54042;BME280;41156;51.508;5.406;2023-02-02T04:42:35;102100.81;;;7.46;100.00
54042;BME280;41156;51.508;5.406;2023-02-02T04:45:35;102094.22;;;7.49;100.00
54042;BME280;41156;51.508;5.406;2023-02-02T04:48:36;102088.19;;;7.47;100.00
54042;BME280;41156;51.508;5.406;2023-02-02T04:51:38;102095.25;;;7.48;100.00
54042;BME280;41156;51.508;5.406;2023-02-02T04:54:38;102089.19;;;7.46;100.00
54042;BME280;41156;51.508;5.406;2023-02-02T04:57:39;102084.50;;;7.48;100.00
54042;BME280;41156;51.508;5.406;2023-02-02T05:00:39;102086.16;;;7.49;100.00
54042;BME280;41156;51.508;5.406;2023-02-02T05:03:40;102085.66;;;7.45;100.00
54042;BME280;41156;51.508;5.406;2023-02-02T05:06:40;102083.13;;;7.44;100.00
54042;BME280;41156;51.508;5.406;2023-02-02T05:09:40;102082.28;;;7.43;100.00
54042;BME280;41156;51.508;5.406;2023-02-02T05:12:40;102086.81;;;7.43;100.00
54042;BME280;41156;51.508;5.406;2023-02-02T05:15:41;102095.75;;;7.43;100.00
54042;BME280;41156;51.508;5.406;2023-02-02T05:18:41;102105.47;;;7.44;100.00
54042;BME280;41156;51.508;5.406;2023-02-02T05:21:43;102113.38;;;7.46;100.00
54042;BME280;41156;51.508;5.406;2023-02-02T05:24:44;102112.38;;;7.47;100.00
54042;BME280;41156;51.508;5.406;2023-02-02T05:27:45;102116.78;;;7.48;100.00
54042;BME280;41156;51.508;5.406;2023-02-02T05:30:45;102112.91;;;7.50;100.00
54042;BME280;41156;51.508;5.406;2023-02-02T05:33:46;102111.91;;;7.51;100.00
54042;BME280;41156;51.508;5.406;2023-02-02T05:36:46;102115.44;;;7.52;100.00
54042;BME280;41156;51.508;5.406;2023-02-02T05:39:47;102104.50;;;7.53;100.00
54042;BME280;41156;51.508;5.406;2023-02-02T05:42:48;102115.94;;;7.55;100.00
54042;BME280;41156;51.508;5.406;2023-02-02T05:45:49;102120.47;;;7.55;100.00
54042;BME280;41156;51.508;5.406;2023-02-02T05:48:49;102113.91;;;7.57;100.00
54042;BME280;41156;51.508;5.406;2023-02-02T05:51:53;102110.41;;;7.57;100.00
54042;BME280;41156;51.508;5.406;2023-02-02T05:54:54;102107.72;;;7.57;100.00
54042;BME280;41156;51.508;5.406;2023-02-02T05:57:54;102114.78;;;7.58;100.00
54042;BME280;41156;51.508;5.406;2023-02-02T06:00:54;102110.22;;;7.58;100.00
54042;BME280;41156;51.508;5.406;2023-02-02T06:03:55;102120.00;;;7.59;100.00
54042;BME280;41156;51.508;5.406;2023-02-02T06:06:55;102109.09;;;7.61;100.00
54042;BME280;41156;51.508;5.406;2023-02-02T06:09:55;102115.44;;;7.60;100.00
54042;BME280;41156;51.508;5.406;2023-02-02T06:12:56;102116.44;;;7.59;100.00
54042;BME280;41156;51.508;5.406;2023-02-02T06:15:57;102114.47;;;7.61;100.00
54042;BME280;41156;51.508;5.406;2023-02-02T06:18:57;102102.00;;;7.60;100.00
54042;BME280;41156;51.508;5.406;2023-02-02T06:21:57;102119.13;;;7.59;100.00
54042;BME280;41156;51.508;5.406;2023-02-02T06:24:58;102122.00;;;7.57;100.00
54042;BME280;41156;51.508;5.406;2023-02-02T06:27:59;102117.78;;;7.55;100.00
54042;BME280;41156;51.508;5.406;2023-02-02T06:31:04;102135.78;;;7.54;100.00
54042;BME280;41156;51.508;5.406;2023-02-02T06:34:04;102138.66;;;7.53;100.00
54042;BME280;41156;51.508;5.406;2023-02-02T06:37:05;102133.41;;;7.51;100.00
54042;BME280;41156;51.508;5.406;2023-02-02T06:40:06;102145.34;;;7.49;100.00
54042;BME280;41156;51.508;5.406;2023-02-02T06:43:07;102132.03;;;7.47;100.00
54042;BME280;41156;51.508;5.406;2023-02-02T06:46:08;102137.59;;;7.46;100.00
54042;BME280;41156;51.508;5.406;2023-02-02T06:49:08;102145.66;;;7.46;100.00
54042;BME280;41156;51.508;5.406;2023-02-02T06:52:08;102153.88;;;7.44;100.00
54042;BME280;41156;51.508;5.406;2023-02-02T06:55:09;102161.13;;;7.44;100.00
54042;BME280;41156;51.508;5.406;2023-02-02T06:58:09;102159.41;;;7.43;100.00
54042;BME280;41156;51.508;5.406;2023-02-02T07:01:12;102162.09;;;7.43;100.00
54042;BME280;41156;51.508;5.406;2023-02-02T07:04:13;102170.34;;;7.41;100.00
54042;BME280;41156;51.508;5.406;2023-02-02T07:07:13;102167.66;;;7.41;100.00
54042;BME280;41156;51.508;5.406;2023-02-02T07:10:13;102171.19;;;7.41;100.00
54042;BME280;41156;51.508;5.406;2023-02-02T07:13:14;102162.97;;;7.43;100.00
54042;BME280;41156;51.508;5.406;2023-02-02T07:16:16;102174.56;;;7.44;100.00
54042;BME280;41156;51.508;5.406;2023-02-02T07:19:16;102171.19;;;7.41;100.00
54042;BME280;41156;51.508;5.406;2023-02-02T07:22:17;102171.88;;;7.44;100.00
54042;BME280;41156;51.508;5.406;2023-02-02T07:25:17;102168.50;;;7.41;100.00
54042;BME280;41156;51.508;5.406;2023-02-02T07:28:17;102181.97;;;7.41;100.00
54042;BME280;41156;51.508;5.406;2023-02-02T07:31:21;102168.50;;;7.41;100.00
54042;BME280;41156;51.508;5.406;2023-02-02T07:34:21;102171.53;;;7.38;100.00
54042;BME280;41156;51.508;5.406;2023-02-02T07:37:22;102174.53;;;7.35;100.00
54042;BME280;41156;51.508;5.406;2023-02-02T07:40:22;102169.31;;;7.34;100.00
54042;BME280;41156;51.508;5.406;2023-02-02T07:43:22;102161.56;;;7.31;100.00
54042;BME280;41156;51.508;5.406;2023-02-02T07:46:22;102173.19;;;7.31;100.00
54042;BME280;41156;51.508;5.406;2023-02-02T07:49:23;102176.03;;;7.30;100.00
54042;BME280;41156;51.508;5.406;2023-02-02T07:52:23;102189.47;;;7.30;100.00
54042;BME280;41156;51.508;5.406;2023-02-02T07:55:23;102182.06;;;7.32;100.00
54042;BME280;41156;51.508;5.406;2023-02-02T07:58:24;102182.91;;;7.32;100.00
54042;BME280;41156;51.508;5.406;2023-02-02T08:01:25;102191.66;;;7.34;100.00
54042;BME280;41156;51.508;5.406;2023-02-02T08:04:26;102196.03;;;7.35;100.00
54042;BME280;41156;51.508;5.406;2023-02-02T08:07:27;102194.03;;;7.37;100.00
54042;BME280;41156;51.508;5.406;2023-02-02T08:10:27;102196.56;;;7.39;100.00
54042;BME280;41156;51.508;5.406;2023-02-02T08:13:27;102199.25;;;7.39;100.00
54042;BME280;41156;51.508;5.406;2023-02-02T08:16:29;102204.47;;;7.40;100.00
54042;BME280;41156;51.508;5.406;2023-02-02T08:19:30;102206.84;;;7.44;100.00
54042;BME280;41156;51.508;5.406;2023-02-02T08:22:30;102204.81;;;7.46;100.00
54042;BME280;41156;51.508;5.406;2023-02-02T08:25:30;102213.41;;;7.49;100.00
54042;BME280;41156;51.508;5.406;2023-02-02T08:28:31;102223.03;;;7.52;100.00
54042;BME280;41156;51.508;5.406;2023-02-02T08:31:34;102215.09;;;7.50;100.00
54042;BME280;41156;51.508;5.406;2023-02-02T08:34:35;102217.63;;;7.52;100.00
54042;BME280;41156;51.508;5.406;2023-02-02T08:37:36;102216.66;;;7.53;100.00
54042;BME280;41156;51.508;5.406;2023-02-02T08:40:36;102224.56;;;7.54;100.00
54042;BME280;41156;51.508;5.406;2023-02-02T08:43:37;102225.41;;;7.55;100.00
54042;BME280;41156;51.508;5.406;2023-02-02T08:46:38;102240.34;;;7.57;100.00
54042;BME280;41156;51.508;5.406;2023-02-02T08:49:39;102242.06;;;7.58;100.00
54042;BME280;41156;51.508;5.406;2023-02-02T08:52:41;102247.28;;;7.60;100.00
54042;BME280;41156;51.508;5.406;2023-02-02T08:55:41;102256.00;;;7.62;100.00
54042;BME280;41156;51.508;5.406;2023-02-02T08:58:46;102269.78;;;7.59;100.00
54042;BME280;41156;51.508;5.406;2023-02-02T09:01:47;102265.09;;;7.61;100.00
54042;BME280;41156;51.508;5.406;2023-02-02T09:04:47;102274.06;;;7.70;100.00
54042;BME280;41156;51.508;5.406;2023-02-02T09:07:47;102284.50;;;7.73;100.00
54042;BME280;41156;51.508;5.406;2023-02-02T09:10:48;102290.56;;;7.75;100.00
54042;BME280;41156;51.508;5.406;2023-02-02T09:13:53;102293.94;;;7.77;100.00
54042;BME280;41156;51.508;5.406;2023-02-02T09:16:54;102299.66;;;7.82;100.00
54042;BME280;41156;51.508;5.406;2023-02-02T09:19:54;102300.19;;;7.86;100.00
54042;BME280;41156;51.508;5.406;2023-02-02T09:22:55;102299.56;;;7.92;100.00
54042;BME280;41156;51.508;5.406;2023-02-02T09:25:56;102294.38;;;7.99;100.00
54042;BME280;41156;51.508;5.406;2023-02-02T09:29:01;102298.44;;;8.03;100.00
54042;BME280;41156;51.508;5.406;2023-02-02T09:32:02;102305.16;;;8.07;100.00
54042;BME280;41156;51.508;5.406;2023-02-02T09:35:02;102311.56;;;8.14;100.00
54042;BME280;41156;51.508;5.406;2023-02-02T09:38:02;102317.81;;;8.14;100.00
54042;BME280;41156;51.508;5.406;2023-02-02T09:44:55;102317.84;;;8.23;100.00
54042;BME280;41156;51.508;5.406;2023-02-02T09:48:10;102332.19;;;8.31;100.00
54042;BME280;41156;51.508;5.406;2023-02-02T09:51:18;102335.06;;;8.38;100.00
54042;BME280;41156;51.508;5.406;2023-02-02T09:54:45;102329.53;;;8.40;100.00
54042;BME280;41156;51.508;5.406;2023-02-02T09:57:48;102345.22;;;8.44;100.00
54042;BME280;41156;51.508;5.406;2023-02-02T10:01:10;102359.69;;;8.43;100.00
54042;BME280;41156;51.508;5.406;2023-02-02T10:04:33;102356.84;;;8.45;100.00
54042;BME280;41156;51.508;5.406;2023-02-02T10:07:38;102358.34;;;8.47;100.00
54042;BME280;41156;51.508;5.406;2023-02-02T10:10:42;102358.50;;;8.46;100.00
54042;BME280;41156;51.508;5.406;2023-02-02T10:13:44;102352.28;;;8.45;100.00
54042;BME280;41156;51.508;5.406;2023-02-02T10:16:48;102352.28;;;8.45;100.00
54042;BME280;41156;51.508;5.406;2023-02-02T10:19:54;102340.13;;;8.41;100.00
54042;BME280;41156;51.508;5.406;2023-02-02T10:22:59;102341.13;;;8.40;100.00
54042;BME280;41156;51.508;5.406;2023-02-02T10:26:39;102337.44;;;8.41;100.00
54042;BME280;41156;51.508;5.406;2023-02-02T10:29:58;102346.72;;;8.47;100.00
54042;BME280;41156;51.508;5.406;2023-02-02T10:33:04;102345.41;;;8.51;100.00
54042;BME280;41156;51.508;5.406;2023-02-02T10:36:31;102351.00;;;8.58;100.00
54042;BME280;41156;51.508;5.406;2023-02-02T10:46:39;102353.19;;;8.79;100.00
54042;BME280;41156;51.508;5.406;2023-02-02T10:49:40;102347.31;;;8.83;100.00
54042;BME280;41156;51.508;5.406;2023-02-02T10:52:45;102367.69;;;8.94;100.00
54042;BME280;41156;51.508;5.406;2023-02-02T10:55:55;102366.72;;;8.95;100.00
54042;BME280;41156;51.508;5.406;2023-02-02T10:59:12;102389.47;;;8.93;100.00
54042;BME280;41156;51.508;5.406;2023-02-02T11:02:14;102380.34;;;8.85;100.00
54042;BME280;41156;51.508;5.406;2023-02-02T11:05:26;102383.34;;;8.82;100.00
54042;BME280;41156;51.508;5.406;2023-02-02T11:08:48;102383.03;;;8.85;100.00
54042;BME280;41156;51.508;5.406;2023-02-02T11:15:06;102385.72;;;8.85;100.00
54042;BME280;41156;51.508;5.406;2023-02-02T11:18:27;102380.00;;;8.88;100.00
54042;BME280;41156;51.508;5.406;2023-02-02T11:21:30;102386.06;;;8.91;100.00
54042;BME280;41156;51.508;5.406;2023-02-02T11:24:44;102384.25;;;8.91;100.00
54042;BME280;41156;51.508;5.406;2023-02-02T11:27:45;102370.94;;;8.89;100.00
54042;BME280;41156;51.508;5.406;2023-02-02T11:30:47;102369.38;;;8.87;100.00
54042;BME280;41156;51.508;5.406;2023-02-02T11:33:51;102352.53;;;8.85;100.00
54042;BME280;41156;51.508;5.406;2023-02-02T11:46:26;102371.91;;;8.88;100.00
54042;BME280;41156;51.508;5.406;2023-02-02T11:49:28;102367.19;;;8.91;100.00
54042;BME280;41156;51.508;5.406;2023-02-02T11:52:31;102357.44;;;8.89;100.00
54042;BME280;41156;51.508;5.406;2023-02-02T11:55:33;102359.63;;;8.94;100.00
54042;BME280;41156;51.508;5.406;2023-02-02T11:58:42;102359.44;;;8.96;100.00
54042;BME280;41156;51.508;5.406;2023-02-02T12:01:43;102359.13;;;8.99;100.00
54042;BME280;41156;51.508;5.406;2023-02-02T12:04:46;102366.88;;;9.02;100.00
54042;BME280;41156;51.508;5.406;2023-02-02T12:07:48;102357.78;;;9.03;100.00
54042;BME280;41156;51.508;5.406;2023-02-02T12:11:02;102359.47;;;9.04;100.00
54042;BME280;41156;51.508;5.406;2023-02-02T12:30:13;102355.44;;;9.33;100.00
54042;BME280;41156;51.508;5.406;2023-02-02T12:33:32;102339.41;;;9.39;100.00
54042;BME280;41156;51.508;5.406;2023-02-02T12:36:47;102344.25;;;9.52;100.00
54042;BME280;41156;51.508;5.406;2023-02-02T12:40:20;102338.53;;;9.55;100.00
54042;BME280;41156;51.508;5.406;2023-02-02T12:43:42;102343.91;;;9.63;100.00
54042;BME280;41156;51.508;5.406;2023-02-02T12:46:55;102331.94;;;9.66;100.00
54042;BME280;41156;51.508;5.406;2023-02-02T12:56:58;102344.91;;;9.71;100.00
54042;BME280;41156;51.508;5.406;2023-02-02T13:00:10;102337.84;;;9.61;100.00
54042;BME280;41156;51.508;5.406;2023-02-02T13:03:37;102332.97;;;9.57;100.00
54042;BME280;41156;51.508;5.406;2023-02-02T13:07:13;102332.47;;;9.61;100.00
54042;BME280;41156;51.508;5.406;2023-02-02T13:10:27;102337.34;;;9.66;100.00
54042;BME280;41156;51.508;5.406;2023-02-02T13:13:32;102330.09;;;9.58;100.00
54042;BME280;41156;51.508;5.406;2023-02-02T13:16:37;102329.44;;;9.48;100.00
54042;BME280;41156;51.508;5.406;2023-02-02T13:19:43;102333.47;;;9.44;100.00
54042;BME280;41156;51.508;5.406;2023-02-02T13:22:46;102334.50;;;9.43;100.00
54042;BME280;41156;51.508;5.406;2023-02-02T13:26:02;102341.59;;;9.36;100.00
54042;BME280;41156;51.508;5.406;2023-02-02T13:32:37;102328.63;;;9.23;100.00
54042;BME280;41156;51.508;5.406;2023-02-02T13:35:44;102336.22;;;9.19;100.00
54042;BME280;41156;51.508;5.406;2023-02-02T13:38:48;102335.19;;;9.20;100.00
54042;BME280;41156;51.508;5.406;2023-02-02T13:41:50;102344.97;;;9.21;100.00
54042;BME280;41156;51.508;5.406;2023-02-02T13:45:00;102336.06;;;9.21;100.00
54042;BME280;41156;51.508;5.406;2023-02-02T13:48:12;102338.06;;;9.19;100.00
54042;BME280;41156;51.508;5.406;2023-02-02T14:01:29;102331.00;;;9.18;100.00
54042;BME280;41156;51.508;5.406;2023-02-02T14:04:31;102336.56;;;9.24;100.00
54042;BME280;41156;51.508;5.406;2023-02-02T14:07:44;102336.56;;;9.33;100.00
54042;BME280;41156;51.508;5.406;2023-02-02T14:30:33;102355.25;;;8.85;100.00
54042;BME280;41156;51.508;5.406;2023-02-02T14:33:38;102361.28;;;8.70;100.00
54042;BME280;41156;51.508;5.406;2023-02-02T14:36:56;102365.28;;;8.58;100.00
54042;BME280;41156;51.508;5.406;2023-02-02T14:43:45;102360.72;;;8.50;100.00
54042;BME280;41156;51.508;5.406;2023-02-02T14:46:43;102364.09;;;8.44;100.00
54042;BME280;41156;51.508;5.406;2023-02-02T14:49:49;102369.25;;;8.38;100.00
54042;BME280;41156;51.508;5.406;2023-02-02T14:53:02;102377.97;;;8.31;100.00
54042;BME280;41156;51.508;5.406;2023-02-02T14:56:05;102380.16;;;8.28;100.00
54042;BME280;41156;51.508;5.406;2023-02-02T14:59:22;102382.09;;;8.18;100.00
54042;BME280;41156;51.508;5.406;2023-02-02T15:02:35;102376.72;;;8.09;100.00
54042;BME280;41156;51.508;5.406;2023-02-02T15:05:41;102382.56;;;8.05;100.00
54042;BME280;41156;51.508;5.406;2023-02-02T15:08:42;102382.56;;;8.05;100.00
54042;BME280;41156;51.508;5.406;2023-02-02T15:15:21;102380.19;;;8.02;100.00
54042;BME280;41156;51.508;5.406;2023-02-02T15:18:37;102376.50;;;8.03;100.00
54042;BME280;41156;51.508;5.406;2023-02-02T15:21:40;102370.63;;;8.07;100.00
54042;BME280;41156;51.508;5.406;2023-02-02T15:24:44;102381.06;;;8.10;100.00
54042;BME280;41156;51.508;5.406;2023-02-02T15:27:50;102375.38;;;8.13;100.00
54042;BME280;41156;51.508;5.406;2023-02-02T15:31:50;102382.44;;;8.14;100.00
54042;BME280;41156;51.508;5.406;2023-02-02T15:35:03;102378.22;;;8.12;100.00
54042;BME280;41156;51.508;5.406;2023-02-02T15:38:06;102391.84;;;8.10;100.00
54042;BME280;41156;51.508;5.406;2023-02-02T15:41:26;102385.94;;;8.07;100.00
54042;BME280;41156;51.508;5.406;2023-02-02T15:44:35;102388.09;;;8.03;100.00
54042;BME280;41156;51.508;5.406;2023-02-02T15:47:37;102389.97;;;8.03;100.00
54042;BME280;41156;51.508;5.406;2023-02-02T15:50:38;102394.47;;;8.02;100.00
54042;BME280;41156;51.508;5.406;2023-02-02T15:53:47;102397.50;;;7.99;100.00
54042;BME280;41156;51.508;5.406;2023-02-02T15:56:48;102402.19;;;7.97;100.00
54042;BME280;41156;51.508;5.406;2023-02-02T15:59:49;102406.22;;;7.93;100.00
54042;BME280;41156;51.508;5.406;2023-02-02T16:02:59;102405.50;;;7.91;100.00
54042;BME280;41156;51.508;5.406;2023-02-02T16:06:03;102411.25;;;7.88;100.00
54042;BME280;41156;51.508;5.406;2023-02-02T16:09:05;102411.41;;;7.86;100.00
54042;BME280;41156;51.508;5.406;2023-02-02T16:12:13;102416.94;;;7.85;100.00
54042;BME280;41156;51.508;5.406;2023-02-02T16:15:25;102417.94;;;7.84;100.00
54042;BME280;41156;51.508;5.406;2023-02-02T16:18:26;102420.78;;;7.82;100.00
54042;BME280;41156;51.508;5.406;2023-02-02T16:21:27;102420.78;;;7.82;100.00
54042;BME280;41156;51.508;5.406;2023-02-02T16:24:32;102416.56;;;7.80;100.00
54042;BME280;41156;51.508;5.406;2023-02-02T16:27:33;102427.66;;;7.76;100.00
54042;BME280;41156;51.508;5.406;2023-02-02T16:30:37;102426.63;;;7.77;100.00
54042;BME280;41156;51.508;5.406;2023-02-02T16:33:41;102431.16;;;7.77;100.00
54042;BME280;41156;51.508;5.406;2023-02-02T16:36:41;102431.31;;;7.75;100.00
54042;BME280;41156;51.508;5.406;2023-02-02T16:39:42;102442.09;;;7.75;100.00
54042;BME280;41156;51.508;5.406;2023-02-02T16:42:42;102436.72;;;7.75;100.00
54042;BME280;41156;51.508;5.406;2023-02-02T16:45:46;102442.91;;;7.76;100.00
54042;BME280;41156;51.508;5.406;2023-02-02T16:48:54;102452.84;;;7.75;100.00
54042;BME280;41156;51.508;5.406;2023-02-02T16:52:14;102451.19;;;7.74;100.00
54042;BME280;41156;51.508;5.406;2023-02-02T16:55:16;102461.94;;;7.74;100.00
54042;BME280;41156;51.508;5.406;2023-02-02T16:58:20;102459.41;;;7.73;100.00
54042;BME280;41156;51.508;5.406;2023-02-02T17:01:21;102477.22;;;7.74;100.00
54042;BME280;41156;51.508;5.406;2023-02-02T17:04:30;102482.59;;;7.74;100.00
54042;BME280;41156;51.508;5.406;2023-02-02T17:07:32;102476.38;;;7.73;100.00
54042;BME280;41156;51.508;5.406;2023-02-02T17:10:34;102476.84;;;7.69;100.00
54042;BME280;41156;51.508;5.406;2023-02-02T17:13:37;102473.47;;;7.67;100.00
54042;BME280;41156;51.508;5.406;2023-02-02T17:16:38;102484.09;;;7.68;100.00
54042;BME280;41156;51.508;5.406;2023-02-02T17:19:38;102480.94;;;7.73;100.00
54042;BME280;41156;51.508;5.406;2023-02-02T17:22:41;102475.94;;;7.78;100.00
54042;BME280;41156;51.508;5.406;2023-02-02T17:25:43;102474.91;;;7.79;100.00
54042;BME280;41156;51.508;5.406;2023-02-02T17:28:43;102482.00;;;7.80;100.00
54042;BME280;41156;51.508;5.406;2023-02-02T17:31:43;102490.91;;;7.81;100.00
54042;BME280;41156;51.508;5.406;2023-02-02T17:34:44;102482.69;;;7.82;100.00
54042;BME280;41156;51.508;5.406;2023-02-02T17:37:45;102490.59;;;7.84;100.00
54042;BME280;41156;51.508;5.406;2023-02-02T17:40:46;102486.91;;;7.85;100.00
54042;BME280;41156;51.508;5.406;2023-02-02T17:43:47;102487.75;;;7.85;100.00
54042;BME280;41156;51.508;5.406;2023-02-02T17:46:47;102485.88;;;7.86;100.00
54042;BME280;41156;51.508;5.406;2023-02-02T17:49:47;102488.59;;;7.86;100.00
54042;BME280;41156;51.508;5.406;2023-02-02T17:52:48;102486.44;;;7.89;100.00
54042;BME280;41156;51.508;5.406;2023-02-02T17:55:49;102485.59;;;7.89;100.00
54042;BME280;41156;51.508;5.406;2023-02-02T17:58:50;102488.13;;;7.90;100.00
54042;BME280;41156;51.508;5.406;2023-02-02T18:01:50;102493.50;;;7.90;100.00